Weather History for Hot Springs, VA

Change the Weather History Date:

Monday, January 1, 2001

  Actual Average Record
Temperature  
Mean Temperature 16 °F -  
Max Temperature 21 °F 34 °F 53 °F (2007)
Min Temperature 10 °F 21 °F 6 °F (2002)
Degree Days  
Heating Degree Days 50    
Moisture  
Dew Point 10 °F    
Average Humidity 85    
Maximum Humidity 100    
Minimum Humidity 63    
Precipitation  
Precipitation 0.00 in - - ()
Sea Level Pressure  
Sea Level Pressure 30.04 in    
Wind  
Wind Speed 15 mph (NW)    
Max Wind Speed 30 mph    
Max Gust Speed 43 mph    
Visibility 10 miles    
Events      
Averages and records for this station are not official NWS values.
T = Trace of Precipitation, MM = Missing Value Source: NWS Daily Summary

Daily Weather History Graph

Daily Weather History Graph

Search for Another Location

Airport:

Trip Planner

Search our weather history database for the weather conditions in past years. The results will help you decide how hot, cold, wet, or windy it might be!

Date:

Astronomy

Jan. 01, 2001 Rise Set
Actual Time 7:35 AM EST 5:10 PM EST
Civil Twilight 7:06 AM EST 5:40 PM EST
Nautical Twilight 6:33 AM EST 6:13 PM EST
Astronomical Twilight 6:01 AM EST 6:45 PM EST
Moon 11:49 AM EST (1/1) 11:40 PM EST (1/1)
Length of Visible Light 10h 34m
Length of Day
9h 35m
Waxing Crescent, 38% of the Moon is Illuminated
Jan 1
Waxing Crescent
Jan 2
First Quarter
Jan 9
Full
Jan 16
Last Quarter
Jan 24
New

Hourly Weather History & Observations

Time (EST) Temp. Windchill Dew Point Humidity Pressure Visibility Wind Dir Wind Speed Gust Speed Precip Events Conditions
12:01 AM 12.2 °F -5.3 °F 10.4 °F 92% 29.98 in 10.0 mi WNW 18.4 mph 25.3 mph N/A   Overcast
12:19 AM 12.2 °F -4.8 °F 10.4 °F 92% 29.98 in 10.0 mi NW 17.3 mph 34.5 mph N/A   Overcast
12:39 AM 12.2 °F -4.8 °F 10.4 °F 92% 29.98 in 10.0 mi NW 17.3 mph 27.6 mph N/A   Overcast
12:59 AM 12.2 °F -3.7 °F 10.4 °F 92% 29.98 in 10.0 mi NW 15.0 mph 27.6 mph N/A   Overcast
1:19 AM 12.2 °F -4.3 °F 10.4 °F 92% 29.99 in 10.0 mi WNW 16.1 mph 26.5 mph N/A   Overcast
1:39 AM 12.2 °F -6.3 °F 10.4 °F 92% 29.98 in 10.0 mi WNW 20.7 mph 28.8 mph N/A   Overcast
1:59 AM 12.2 °F -7.5 °F 10.4 °F 92% 29.98 in 7.0 mi WNW 24.2 mph 31.1 mph N/A   Overcast
2:19 AM 12.2 °F -7.9 °F 10.4 °F 92% 29.98 in 10.0 mi NW 25.3 mph 33.4 mph N/A   Mostly Cloudy
2:39 AM 12.2 °F -9.3 °F 10.4 °F 92% 29.98 in 10.0 mi NW 29.9 mph 42.6 mph N/A   Scattered Clouds
2:59 AM 10.4 °F -9.1 °F 10.4 °F 100% 29.97 in 10.0 mi NW 21.9 mph 31.1 mph N/A   Scattered Clouds
3:19 AM 10.4 °F -6.0 °F 10.4 °F 100% 29.99 in 10.0 mi NW 15.0 mph 27.6 mph N/A   Scattered Clouds
3:39 AM 10.4 °F -6.0 °F 10.4 °F 100% 30.00 in 10.0 mi WNW 15.0 mph 25.3 mph N/A   Scattered Clouds
3:59 AM 10.4 °F -3.3 °F 10.4 °F 100% 30.01 in 10.0 mi WNW 10.4 mph 23.0 mph N/A   Mostly Cloudy
4:19 AM 10.4 °F -5.4 °F 10.4 °F 100% 30.02 in 10.0 mi NW 13.8 mph 19.6 mph N/A   Overcast
4:39 AM 10.4 °F -4.8 °F 8.6 °F 92% 30.03 in 10.0 mi WNW 12.7 mph 18.4 mph N/A   Overcast
4:59 AM 10.4 °F -6.0 °F 8.6 °F 92% 30.03 in 10.0 mi WNW 15.0 mph 19.6 mph N/A   Overcast
5:19 AM 10.4 °F -8.2 °F 10.4 °F 100% 30.04 in 10.0 mi WNW 19.6 mph 25.3 mph N/A   Mostly Cloudy
5:39 AM 10.4 °F -8.6 °F 10.4 °F 100% 30.04 in 10.0 mi WNW 20.7 mph 24.2 mph N/A   Scattered Clouds
5:59 AM 10.4 °F -8.6 °F 10.4 °F 100% 30.05 in 10.0 mi WNW 20.7 mph - N/A   Scattered Clouds
6:19 AM 10.4 °F -7.2 °F 10.4 °F 100% 30.06 in 10.0 mi NW 17.3 mph - N/A   Mostly Cloudy
6:39 AM 10.4 °F -4.8 °F 8.6 °F 92% 30.07 in 10.0 mi WNW 12.7 mph 24.2 mph N/A   Mostly Cloudy
6:59 AM 10.4 °F -5.4 °F 8.6 °F 92% 30.08 in 10.0 mi WNW 13.8 mph 21.9 mph N/A   Mostly Cloudy
7:19 AM 10.4 °F -4.8 °F 10.4 °F 100% 30.08 in 10.0 mi NW 12.7 mph 26.5 mph N/A   Mostly Cloudy
7:39 AM 10.4 °F -7.2 °F 8.6 °F 92% 30.09 in 10.0 mi NW 17.3 mph 23.0 mph N/A   Mostly Cloudy
7:59 AM 10.4 °F -6.0 °F 8.6 °F 92% 30.08 in 10.0 mi NW 15.0 mph 23.0 mph N/A   Scattered Clouds
8:19 AM 10.4 °F -7.7 °F 8.6 °F 92% 30.09 in 10.0 mi WNW 18.4 mph 24.2 mph N/A   Scattered Clouds
8:39 AM 10.4 °F -7.2 °F 8.6 °F 92% 30.09 in 10.0 mi NW 17.3 mph 23.0 mph N/A   Scattered Clouds
8:59 AM 10.4 °F -4.1 °F 8.6 °F 92% 30.09 in 10.0 mi NNW 11.5 mph - N/A   Scattered Clouds
9:19 AM 12.2 °F -3.7 °F 8.6 °F 85% 30.09 in 10.0 mi NW 15.0 mph - N/A   Clear
9:39 AM 12.2 °F -4.8 °F 10.4 °F 92% 30.09 in 10.0 mi NW 17.3 mph 21.9 mph N/A   Clear
9:59 AM 12.2 °F -4.8 °F 8.6 °F 85% 30.09 in 10.0 mi NW 17.3 mph 21.9 mph N/A   Clear
10:19 AM 12.2 °F -3.1 °F 8.6 °F 85% 30.09 in 10.0 mi NW 13.8 mph - N/A   Clear
10:39 AM 14.0 °F -0.8 °F 10.4 °F 86% 30.09 in 10.0 mi WNW 13.8 mph - N/A   Clear
10:59 AM 15.8 °F 2.1 °F 10.4 °F 79% 30.09 in 10.0 mi WNW 12.7 mph - N/A   Clear
11:19 AM 15.8 °F 3.4 °F 10.4 °F 79% 30.08 in 10.0 mi NW 10.4 mph - N/A   Clear
11:39 AM 17.6 °F 5.0 °F 10.4 °F 73% 30.06 in 10.0 mi NW 11.5 mph - N/A   Clear
11:59 AM 17.6 °F 5.7 °F 10.4 °F 73% 30.05 in 10.0 mi NW 10.4 mph - N/A   Clear
12:19 PM 17.6 °F 5.0 °F 12.2 °F 79% 30.05 in 10.0 mi NW 11.5 mph - N/A   Clear
12:39 PM 19.4 °F 8.6 °F 12.2 °F 74% 30.04 in 10.0 mi NW 9.2 mph - N/A   Clear
12:59 PM 19.4 °F 7.9 °F 10.4 °F 68% 30.03 in 10.0 mi NNW 10.4 mph - N/A   Clear
1:19 PM 21.2 °F 10.9 °F 10.4 °F 63% 30.03 in 10.0 mi NNW 9.2 mph - N/A   Clear
1:39 PM 21.2 °F 10.9 °F 12.2 °F 68% 30.03 in 10.0 mi NW 9.2 mph - N/A   Clear
1:59 PM 21.2 °F 13.6 °F 12.2 °F 68% 30.03 in 10.0 mi NW 5.8 mph - N/A   Clear
2:19 PM 19.4 °F 10.4 °F 10.4 °F 68% 30.03 in 10.0 mi NW 6.9 mph - N/A   Clear
2:39 PM 21.2 °F 11.7 °F 12.2 °F 68% 30.03 in 10.0 mi North 8.1 mph - N/A   Clear
2:59 PM 19.4 °F 10.4 °F 10.4 °F 68% 30.03 in 10.0 mi North 6.9 mph - N/A   Scattered Clouds
3:19 PM 19.4 °F 11.5 °F 10.4 °F 68% 30.04 in 10.0 mi WNW 5.8 mph - N/A   Scattered Clouds
3:39 PM 19.4 °F 10.4 °F 10.4 °F 68% 30.04 in 10.0 mi NW 6.9 mph - N/A   Mostly Cloudy
3:59 PM 19.4 °F 10.4 °F 12.2 °F 74% 30.05 in 10.0 mi WNW 6.9 mph - N/A   Mostly Cloudy
4:19 PM 19.4 °F 10.4 °F 10.4 °F 68% 30.05 in 10.0 mi NW 6.9 mph - N/A   Mostly Cloudy
4:39 PM 17.6 °F 8.2 °F 10.4 °F 73% 30.05 in 10.0 mi NW 6.9 mph - N/A   Clear
4:59 PM 17.6 °F 6.4 °F 12.2 °F 79% 30.05 in 10.0 mi NW 9.2 mph - N/A   Mostly Cloudy
5:19 PM 17.6 °F 7.3 °F 10.4 °F 73% 30.06 in 10.0 mi NW 8.1 mph - N/A   Overcast
5:39 PM 17.6 °F 7.3 °F 10.4 °F 73% 30.06 in 10.0 mi NNW 8.1 mph - N/A   Overcast
5:59 PM 15.8 °F 3.4 °F 10.4 °F 79% 30.06 in 10.0 mi NW 10.4 mph - N/A   Overcast
6:19 PM 15.8 °F 3.4 °F 10.4 °F 79% 30.07 in 10.0 mi NW 10.4 mph - N/A   Overcast
6:39 PM 15.8 °F 2.7 °F 10.4 °F 79% 30.07 in 10.0 mi NW 11.5 mph - N/A   Overcast
7:00 PM 14.0 °F 1.2 °F 10.4 °F 86% 30.08 in 10.0 mi NW 10.4 mph - N/A   Overcast
7:19 PM 14.0 °F 2.0 °F 10.4 °F 86% 30.08 in 10.0 mi NW 9.2 mph - N/A   Overcast
7:39 PM 12.2 °F -1.0 °F 10.4 °F 92% 30.08 in 10.0 mi NW 10.4 mph - N/A   Overcast
7:59 PM 12.2 °F -1.0 °F 10.4 °F 92% 30.09 in 10.0 mi NW 10.4 mph - N/A   Overcast
8:20 PM 12.2 °F -1.8 °F 10.4 °F 92% 30.09 in 10.0 mi NW 11.5 mph - N/A   Mostly Cloudy
8:39 PM 12.2 °F -1.0 °F 8.6 °F 85% 30.09 in 10.0 mi NW 10.4 mph - N/A   Mostly Cloudy
8:59 PM 10.4 °F -3.3 °F 10.4 °F 100% 30.09 in 10.0 mi NW 10.4 mph - N/A   Scattered Clouds
9:19 PM 10.4 °F -4.8 °F 10.4 °F 100% 30.09 in 10.0 mi NW 12.7 mph - N/A   Clear
9:39 PM 10.4 °F -4.1 °F 10.4 °F 100% 30.09 in 10.0 mi NW 11.5 mph 17.3 mph N/A   Clear
9:59 PM 10.4 °F -4.8 °F 8.6 °F 92% 30.09 in 10.0 mi NW 12.7 mph - N/A   Clear
10:19 PM 10.4 °F -4.8 °F 8.6 °F 92% 30.10 in 10.0 mi NW 12.7 mph - N/A   Scattered Clouds
10:39 PM 10.4 °F -4.1 °F 8.6 °F 92% 30.10 in 10.0 mi NW 11.5 mph 18.4 mph N/A   Overcast
10:59 PM 10.4 °F -4.8 °F 8.6 °F 92% 30.10 in 10.0 mi NW 12.7 mph - N/A   Overcast
11:19 PM 10.4 °F -5.4 °F 8.6 °F 92% 30.11 in 10.0 mi NW 13.8 mph - N/A   Overcast
11:39 PM 10.4 °F -5.4 °F 8.6 °F 92% 30.11 in 10.0 mi NW 13.8 mph - N/A   Mostly Cloudy
11:59 PM 10.4 °F -5.4 °F 8.6 °F 92% 30.11 in 10.0 mi NW 13.8 mph - N/A   Mostly Cloudy